Time;durP1;ratioP1;P1;durP2;ratioP2;P2;SDS_P1;SDS_P2;PMS_P1;PMS_P2;Temp;Humidity;BMP_temperature;BMP_pressure;BME280_temperature;BME280_humidity;BME280_pressure;Samples;Min_cycle;Max_cycle;Signal;HPM_P1;HPM_P2
2024/01/18 00:02:22;;;;;;;75.10;33.87;;;;;;;-141.97;78.93;46452.50;5014758;28;20233;-86
2024/01/18 00:04:48;;;;;;;73.97;33.27;;;;;;;-141.97;78.63;46173.91;5013930;28;20155;-84
2024/01/18 00:07:13;;;;;;;73.40;32.07;;;;;;;-141.97;78.84;46221.94;5013978;28;20976;-85
2024/01/18 00:09:39;;;;;;;74.37;33.27;;;;;;;-141.97;78.71;46195.06;5013740;28;20278;-84
2024/01/18 00:12:05;;;;;;;73.67;31.90;;;;;;;-141.97;78.36;46112.44;5013419;28;21014;-84
2024/01/18 00:14:30;;;;;;;68.43;32.43;;;;;;;-141.97;77.99;46464.03;4995842;28;20232;-84
2024/01/18 00:16:55;;;;;;;74.80;32.37;;;;;;;-141.97;77.99;45989.47;5013305;28;20171;-85
2024/01/18 00:19:21;;;;;;;64.60;30.47;;;;;;;-141.97;77.49;46477.50;5013114;28;20617;-85
2024/01/18 00:21:46;;;;;;;66.83;29.87;;;;;;;-141.97;77.20;46248.84;4995706;28;20256;-84
2024/01/18 00:24:11;;;;;;;75.00;33.37;;;;;;;-141.97;77.75;46523.59;5013735;28;20599;-84
2024/01/18 00:26:37;;;;;;;73.00;31.87;;;;;;;-141.97;78.00;46533.22;5013546;28;20225;-84
2024/01/18 00:29:02;;;;;;;67.00;32.17;;;;;;;-141.97;77.67;46195.06;5013195;28;20230;-85
2024/01/18 00:31:28;;;;;;;69.93;31.47;;;;;;;-141.97;76.95;46464.03;5013084;28;20194;-84
2024/01/18 00:33:57;;;;;;;72.70;30.90;;;;;;;-141.97;76.63;46150.84;5013519;28;20171;-84
2024/01/18 00:36:23;;;;;;;71.23;33.70;;;;;;;-141.97;75.74;46198.91;5013094;28;20595;-84
2024/01/18 00:38:49;;;;;;;69.23;33.93;;;;;;;-141.97;75.53;46473.66;4995361;28;20413;-84
2024/01/18 00:41:14;;;;;;;72.97;33.40;;;;;;;-141.97;76.70;46189.28;5013335;28;20174;-84
2024/01/18 00:43:39;;;;;;;76.07;35.53;;;;;;;-141.97;76.17;46122.03;5013044;28;20159;-84
2024/01/18 00:46:05;;;;;;;72.90;32.40;;;;;;;-141.97;76.22;46160.47;4995032;28;20171;-84
2024/01/18 00:48:30;;;;;;;76.20;33.90;;;;;;;-141.97;75.30;46500.56;5012644;28;20282;-83
2024/01/18 00:50:56;;;;;;;75.97;35.17;;;;;;;-141.97;75.30;46029.81;4994784;28;20229;-84
2024/01/18 00:53:21;;;;;;;73.70;34.43;;;;;;;-141.97;75.00;46185.44;5012888;28;20316;-84
2024/01/18 00:55:47;;;;;;;69.17;35.07;;;;;;;-141.97;74.57;46183.53;5012758;28;20234;-84
2024/01/18 00:58:13;;;;;;;82.93;36.47;;;;;;;-141.97;74.95;46312.25;5011662;28;20177;-84
2024/01/18 01:00:38;;;;;;;75.87;35.93;;;;;;;-141.97;75.20;46045.19;5015305;28;20166;-84
2024/01/18 01:03:04;;;;;;;89.17;37.13;;;;;;;-141.97;74.95;46181.59;5002129;28;20420;-84
2024/01/18 01:05:29;;;;;;;85.30;39.03;;;;;;;-141.97;74.88;46195.06;5022195;28;20174;-84
2024/01/18 01:07:55;;;;;;;82.10;36.50;;;;;;;-141.97;73.83;46164.31;5025501;28;20187;-84
2024/01/18 01:10:21;;;;;;;82.53;37.27;;;;;;;-141.97;73.64;46481.34;5014772;28;20210;-85
2024/01/18 01:12:47;;;;;;;77.37;36.37;;;;;;;-141.97;73.86;46358.38;5015709;28;20165;-84
2024/01/18 01:15:12;;;;;;;87.17;39.13;;;;;;;-141.97;74.07;46050.97;5017960;28;20170;-85
2024/01/18 01:17:37;;;;;;;72.17;34.27;;;;;;;-141.97;73.71;46489.03;4996092;28;20504;-84
2024/01/18 01:20:04;;;;;;;72.37;35.23;;;;;;;-141.97;73.91;46120.13;5011744;28;20201;-84
2024/01/18 01:22:29;;;;;;;80.10;37.20;;;;;;;-141.97;73.91;46074.00;4994654;28;20656;-84
2024/01/18 01:24:54;;;;;;;70.77;33.83;;;;;;;-141.97;74.05;46481.34;5012341;28;20409;-85
2024/01/18 01:27:20;;;;;;;76.63;35.57;;;;;;;-141.97;74.06;46196.97;4994978;28;20174;-85
2024/01/18 01:29:45;;;;;;;77.37;34.17;;;;;;;-141.97;73.92;46004.84;5015299;28;20194;-84
2024/01/18 01:32:11;;;;;;;71.40;33.33;;;;;;;-141.97;73.78;46181.59;5033222;28;20173;-83
2024/01/18 01:34:36;;;;;;;73.80;34.40;;;;;;;-141.97;73.94;46235.41;5031521;28;20171;-85
2024/01/18 01:37:02;;;;;;;70.13;33.90;;;;;;;-141.97;74.27;46162.38;5013588;28;20167;-85
2024/01/18 01:39:28;;;;;;;70.23;33.23;;;;;;;-141.97;73.37;46185.44;5011948;28;20539;-84
2024/01/18 01:41:53;;;;;;;69.53;34.33;;;;;;;-141.97;73.71;46198.91;5011904;28;20159;-86
2024/01/18 01:44:19;;;;;;;87.97;40.63;;;;;;;-141.97;73.86;45962.59;5011838;28;20416;-84
2024/01/18 01:46:44;;;;;;;251.00;101.50;;;;;;;-141.97;74.28;46024.06;5011614;28;20159;-85
2024/01/18 01:49:10;;;;;;;212.03;86.33;;;;;;;-141.97;74.63;46262.28;5011586;28;20177;-85
2024/01/18 01:51:51;;;;;;;131.07;56.50;;;;;;;-141.97;75.15;46166.22;5010250;28;20248;-85
2024/01/18 01:54:19;;;;;;;87.17;41.93;;;;;;;-141.97;75.58;46412.16;4993935;28;20174;-85
2024/01/18 01:56:49;;;;;;;84.20;36.40;;;;;;;-141.97;75.65;46062.47;4987041;28;20482;-84
2024/01/18 01:59:16;;;;;;;71.77;33.83;;;;;;;-141.97;76.05;46162.38;4971468;28;20423;-85
2024/01/18 02:01:44;;;;;;;76.77;33.93;;;;;;;-141.97;76.37;46196.97;4986756;28;20427;-84
2024/01/18 02:04:10;;;;;;;69.93;31.73;;;;;;;-141.97;76.11;46198.91;4972353;28;20425;-84
2024/01/18 02:06:37;;;;;;;66.07;32.90;;;;;;;-141.97;77.09;46214.25;4972638;28;20495;-85
2024/01/18 02:09:03;;;;;;;67.83;31.70;;;;;;;-141.97;77.23;46535.13;4972604;28;20416;-84
2024/01/18 02:11:29;;;;;;;61.33;30.47;;;;;;;-141.97;77.47;46162.38;4972567;28;20400;-85
2024/01/18 02:13:55;;;;;;;58.53;28.10;;;;;;;-141.97;76.56;46216.19;4973978;28;20419;-85
2024/01/18 02:16:21;;;;;;;60.63;29.90;;;;;;;-141.97;76.92;46100.91;4973263;28;20608;-84
2024/01/18 02:18:47;;;;;;;61.13;26.30;;;;;;;-141.97;76.59;46125.88;4972174;28;20450;-85
2024/01/18 02:21:13;;;;;;;59.50;29.23;;;;;;;-141.97;77.68;46565.88;4973503;28;20576;-85
2024/01/18 02:23:41;;;;;;;68.73;29.50;;;;;;;-141.97;77.24;46444.81;4972176;28;20276;-85
2024/01/18 02:26:06;;;;;;;75.93;36.67;;;;;;;-141.97;77.85;46191.22;4972388;28;20948;-85
2024/01/18 02:28:32;;;;;;;102.07;43.83;;;;;;;-141.97;77.18;46095.16;4972269;28;20408;-85
2024/01/18 02:30:57;;;;;;;80.47;36.07;;;;;;;-141.97;79.37;46070.16;4972387;28;20523;-85
2024/01/18 02:33:23;;;;;;;79.43;36.30;;;;;;;-141.97;79.17;46400.63;4972191;28;20201;-85
2024/01/18 02:35:50;;;;;;;88.60;38.63;;;;;;;-141.97;79.19;46043.28;4972295;28;20246;-84
2024/01/18 02:38:15;;;;;;;129.17;52.80;;;;;;;-141.97;79.03;46508.22;4972749;28;20164;-84
2024/01/18 02:40:42;;;;;;;82.07;36.57;;;;;;;-141.97;79.22;46596.63;4972631;28;20404;-84
2024/01/18 02:43:07;;;;;;;68.87;32.30;;;;;;;-141.97;79.42;46112.44;4972358;28;20191;-84
2024/01/18 02:45:35;;;;;;;90.50;38.57;;;;;;;-141.97;79.18;46185.44;4970679;28;20888;-84
2024/01/18 02:48:01;;;;;;;93.17;43.13;;;;;;;-141.97;79.23;46058.63;4972400;28;20180;-84
2024/01/18 02:50:26;;;;;;;102.37;46.17;;;;;;;-141.97;78.85;45972.19;4971584;28;20845;-83
2024/01/18 02:52:52;;;;;;;80.97;37.07;;;;;;;-141.97;79.21;46262.28;4970139;28;20188;-84
2024/01/18 02:55:18;;;;;;;76.53;36.53;;;;;;;-141.97;78.79;46506.31;4971986;28;20168;-84
2024/01/18 02:57:44;;;;;;;68.13;32.43;;;;;;;-141.97;78.92;46099.00;5010612;28;20179;-84
2024/01/18 03:00:11;;;;;;;62.00;29.33;;;;;;;-141.97;78.91;46100.91;5010793;28;20410;-84
2024/01/18 03:02:37;;;;;;;68.13;33.23;;;;;;;-141.97;78.81;46062.47;5010699;28;20182;-84
2024/01/18 03:05:02;;;;;;;65.97;30.63;;;;;;;-141.97;78.95;46020.22;5011595;28;20416;-84
2024/01/18 03:07:28;;;;;;;135.47;54.50;;;;;;;-141.97;78.86;46093.22;4993090;28;20190;-84
2024/01/18 03:09:54;;;;;;;62.63;30.70;;;;;;;-141.97;78.85;46369.88;5010553;28;20508;-84
2024/01/18 03:12:19;;;;;;;61.57;29.40;;;;;;;-141.97;79.20;46193.13;5009530;28;20418;-84
2024/01/18 03:14:45;;;;;;;56.90;28.67;;;;;;;-141.97;78.75;46346.84;5009731;28;20572;-84
2024/01/18 03:17:10;;;;;;;57.87;28.83;;;;;;;-141.97;78.75;46074.00;5010514;28;20622;-83
2024/01/18 03:19:36;;;;;;;62.90;28.93;;;;;;;-141.97;78.08;46496.72;4992761;28;20629;-84
2024/01/18 03:22:01;;;;;;;55.73;27.93;;;;;;;-141.97;77.99;46001.00;4992880;28;20197;-84
2024/01/18 03:24:27;;;;;;;53.47;27.27;;;;;;;-141.97;77.45;46087.47;5008985;28;20319;-84
2024/01/18 03:26:52;;;;;;;59.20;30.27;;;;;;;-141.97;77.21;46243.09;4992574;28;20175;-84
2024/01/18 03:29:17;;;;;;;59.43;28.70;;;;;;;-141.97;77.16;45929.91;5010459;28;20610;-84
2024/01/18 03:31:43;;;;;;;91.20;40.07;;;;;;;-141.97;76.58;46216.19;5010379;28;20613;-84
2024/01/18 03:34:08;;;;;;;149.03;59.57;;;;;;;-141.97;76.51;46110.50;4993444;28;20190;-84
2024/01/18 03:36:34;;;;;;;129.30;54.17;;;;;;;-141.97;75.67;46452.50;5010346;28;20197;-84
2024/01/18 03:38:59;;;;;;;137.20;56.57;;;;;;;-141.97;75.79;46185.44;4993344;28;20209;-83
2024/01/18 03:41:25;;;;;;;150.33;63.73;;;;;;;-141.97;75.62;46058.63;5029283;28;20147;-85
2024/01/18 03:43:50;;;;;;;150.30;62.57;;;;;;;-141.97;75.04;46604.31;5031615;28;20159;-85
2024/01/18 03:46:15;;;;;;;155.73;67.27;;;;;;;-141.97;74.90;46569.72;4992385;28;20182;-85
2024/01/18 03:48:42;;;;;;;136.23;58.77;;;;;;;-141.97;75.92;46058.63;5010970;28;20174;-84
2024/01/18 03:51:07;;;;;;;95.97;42.37;;;;;;;-141.97;75.98;46200.81;5004232;28;20237;-84
2024/01/18 03:53:33;;;;;;;66.33;32.23;;;;;;;-141.97;75.71;46175.84;5011191;28;20536;-84
2024/01/18 03:55:59;;;;;;;40.67;19.57;;;;;;;-141.97;75.62;46298.81;5010252;28;20221;-84
2024/01/18 03:58:24;;;;;;;52.43;26.67;;;;;;;-141.97;76.32;45993.31;5010344;28;20163;-84
2024/01/18 04:00:51;;;;;;;56.80;26.97;;;;;;;-141.97;76.82;46141.25;5011673;28;20436;-84
2024/01/18 04:03:16;;;;;;;48.87;25.57;;;;;;;-141.97;76.46;46200.81;4995721;28;20649;-85
2024/01/18 04:05:42;;;;;;;54.00;25.93;;;;;;;-141.97;76.72;46185.44;5011446;28;20413;-84
2024/01/18 04:08:07;;;;;;;51.37;25.77;;;;;;;-141.97;75.96;46177.75;5010619;28;20496;-83
2024/01/18 04:10:32;;;;;;;51.07;26.07;;;;;;;-141.97;76.67;46189.28;5010941;28;20187;-84
2024/01/18 04:12:58;;;;;;;54.23;26.23;;;;;;;-141.97;76.76;46114.34;5010421;28;20171;-84
2024/01/18 04:15:23;;;;;;;54.70;27.43;;;;;;;-141.97;76.80;46193.13;5010492;28;20163;-84
2024/01/18 04:17:49;;;;;;;50.67;25.93;;;;;;;-141.97;76.79;46039.44;5015940;28;20171;-84
2024/01/18 04:20:17;;;;;;;45.93;23.20;;;;;;;-141.97;76.59;46500.56;5013170;28;20210;-84
2024/01/18 04:22:45;;;;;;;46.17;21.80;;;;;;;-141.97;76.09;46114.34;5011607;28;20169;-84
2024/01/18 04:25:11;;;;;;;49.03;23.67;;;;;;;-141.97;76.40;46083.63;4993873;28;20508;-84
2024/01/18 04:27:36;;;;;;;48.60;24.20;;;;;;;-141.97;77.22;46058.63;5016092;28;20452;-83
2024/01/18 04:30:02;;;;;;;60.77;31.60;;;;;;;-141.97;77.50;46204.66;5031113;28;20280;-84
2024/01/18 04:32:27;;;;;;;78.40;35.17;;;;;;;-141.97;77.50;46083.63;5056529;28;20231;-84
2024/01/18 04:34:53;;;;;;;68.60;31.47;;;;;;;-141.97;77.48;46148.94;5056260;28;20197;-83
2024/01/18 04:37:18;;;;;;;83.77;34.17;;;;;;;-141.97;77.78;46450.59;5053003;28;20266;-83
2024/01/18 04:39:43;;;;;;;71.93;31.90;;;;;;;-141.97;77.44;46166.22;5052963;28;20550;-84
2024/01/18 04:42:09;;;;;;;61.13;28.03;;;;;;;-141.97;77.32;46143.19;5034809;28;20315;-84
2024/01/18 04:44:34;;;;;;;60.53;29.27;;;;;;;-141.97;77.45;46356.44;5052940;28;20237;-83
2024/01/18 04:47:00;;;;;;;55.63;29.10;;;;;;;-141.97;77.20;46081.69;5052677;28;20166;-84
2024/01/18 04:49:25;;;;;;;45.03;22.07;;;;;;;-141.97;76.73;46064.41;5052254;28;20507;-84
2024/01/18 04:51:50;;;;;;;51.27;26.20;;;;;;;-141.97;76.52;46037.50;5052419;28;20168;-84
2024/01/18 04:54:16;;;;;;;51.63;26.63;;;;;;;-141.97;76.78;46425.63;5037841;28;20205;-85
2024/01/18 04:56:41;;;;;;;55.03;26.40;;;;;;;-141.97;77.47;46191.22;5052834;28;20220;-85
2024/01/18 04:59:08;;;;;;;49.40;25.33;;;;;;;-141.97;77.56;46552.44;5052445;28;20168;-84
2024/01/18 05:01:37;;;;;;;52.43;25.27;;;;;;;-141.97;77.48;46139.34;5052550;28;20744;-84
2024/01/18 05:04:04;;;;;;;53.00;26.27;;;;;;;-141.97;77.99;46481.34;5052192;28;20408;-84
2024/01/18 05:06:29;;;;;;;49.47;26.37;;;;;;;-141.97;78.27;46029.81;5051550;28;20494;-84
2024/01/18 05:08:55;;;;;;;53.17;26.57;;;;;;;-141.97;77.98;46193.13;5034255;28;20453;-84
2024/01/18 05:11:20;;;;;;;54.80;26.30;;;;;;;-141.97;78.82;46062.47;5034885;28;20295;-83
2024/01/18 05:13:46;;;;;;;50.43;25.33;;;;;;;-141.97;77.82;46027.91;5052879;28;20183;-84
2024/01/18 05:16:11;;;;;;;50.20;26.10;;;;;;;-141.97;78.52;46185.44;5052920;28;20265;-84
2024/01/18 05:18:36;;;;;;;49.63;24.57;;;;;;;-141.97;77.65;46433.28;5034466;28;20192;-84
2024/01/18 05:21:02;;;;;;;53.07;27.73;;;;;;;-141.97;77.59;46202.72;5034330;28;20174;-84
2024/01/18 05:23:27;;;;;;;49.50;25.77;;;;;;;-141.97;76.99;46373.72;5052208;28;20244;-85
2024/01/18 05:25:53;;;;;;;51.43;26.60;;;;;;;-141.97;76.85;46469.81;5034025;28;20263;-84
2024/01/18 05:28:18;;;;;;;50.87;25.40;;;;;;;-141.97;76.49;46319.94;5034387;28;20177;-84
2024/01/18 05:30:44;;;;;;;52.40;25.63;;;;;;;-141.97;76.70;46298.81;5034860;28;20777;-84
2024/01/18 05:33:10;;;;;;;64.23;32.03;;;;;;;-141.97;76.59;46062.47;5034336;28;20233;-84
2024/01/18 05:35:35;;;;;;;49.83;25.57;;;;;;;-141.97;77.00;46077.84;5052918;28;20180;-85
2024/01/18 05:38:00;;;;;;;48.97;25.30;;;;;;;-141.97;76.64;45974.09;5033632;28;20178;-84
2024/01/18 05:40:26;;;;;;;52.53;27.53;;;;;;;-141.97;77.06;46147.03;5052406;28;20237;-84
2024/01/18 05:42:51;;;;;;;53.67;26.37;;;;;;;-141.97;76.88;46500.56;5051986;28;20294;-84
2024/01/18 05:45:17;;;;;;;50.80;26.57;;;;;;;-141.97;76.75;46446.75;5034520;28;20616;-83
2024/01/18 05:47:42;;;;;;;99.13;49.07;;;;;;;-141.97;76.89;46577.41;5055192;28;20166;-83
2024/01/18 05:50:08;;;;;;;62.27;28.83;;;;;;;-141.97;76.96;46563.97;5037435;28;20189;-84
2024/01/18 05:52:34;;;;;;;56.37;28.30;;;;;;;-141.97;77.36;46147.03;5034196;28;20166;-85
2024/01/18 05:54:59;;;;;;;56.97;29.33;;;;;;;-141.97;76.71;46515.91;5052750;28;20173;-84
2024/01/18 05:57:25;;;;;;;64.30;33.70;;;;;;;-141.97;77.41;46085.53;5063963;28;20251;-85
2024/01/18 05:59:51;;;;;;;73.63;38.57;;;;;;;-141.97;77.13;46196.97;5072112;28;20221;-85
2024/01/18 06:02:16;;;;;;;178.47;70.27;;;;;;;-141.97;77.09;46066.31;5072145;28;20241;-83
2024/01/18 06:04:42;;;;;;;193.83;82.23;;;;;;;-141.97;76.86;46177.75;5054525;28;20211;-85
2024/01/18 06:07:07;;;;;;;133.67;65.23;;;;;;;-141.97;76.66;46173.91;5057681;28;20256;-84
2024/01/18 06:09:32;;;;;;;90.60;43.10;;;;;;;-141.97;76.71;46123.97;5053733;28;20213;-84
2024/01/18 06:11:58;;;;;;;66.23;32.93;;;;;;;-141.97;78.31;46058.63;5052521;28;20292;-84
2024/01/18 06:14:23;;;;;;;73.60;38.10;;;;;;;-141.97;77.93;46198.91;5052323;28;20195;-84
2024/01/18 06:16:48;;;;;;;98.47;43.67;;;;;;;-141.97;78.12;46375.66;5051905;28;20165;-84
2024/01/18 06:19:14;;;;;;;179.93;76.30;;;;;;;-141.97;78.61;46546.66;5052398;28;20201;-84
2024/01/18 06:21:41;;;;;;;128.23;57.87;;;;;;;-141.97;78.42;46204.66;5051710;28;20205;-83
2024/01/18 06:24:07;;;;;;;152.97;67.43;;;;;;;-141.97;78.61;46196.97;5052921;28;20164;-85
2024/01/18 06:26:36;;;;;;;162.83;74.80;;;;;;;-141.97;77.81;46123.97;5056350;28;20407;-85
2024/01/18 06:29:04;;;;;;;79.97;36.17;;;;;;;-141.97;77.87;46116.28;5034769;28;20803;-84
2024/01/18 06:31:29;;;;;;;86.17;40.97;;;;;;;-141.97;78.38;46093.22;5050744;28;20404;-85
2024/01/18 06:33:56;;;;;;;122.43;51.43;;;;;;;-141.97;79.13;46173.91;5050568;28;20476;-85
2024/01/18 06:36:22;;;;;;;93.63;41.17;;;;;;;-141.97;79.63;46039.44;5050855;28;20586;-86
2024/01/18 06:38:49;;;;;;;94.60;44.10;;;;;;;-141.97;80.47;46014.44;5050542;28;20400;-85
2024/01/18 06:41:15;;;;;;;96.37;44.50;;;;;;;-141.97;80.59;46612.00;5051887;28;20573;-83
2024/01/18 06:43:40;;;;;;;96.10;43.80;;;;;;;-141.97;80.39;46540.91;5054610;28;20408;-83
2024/01/18 06:46:16;;;;;;;110.33;48.97;;;;;;;-141.97;80.07;46054.81;5055497;28;20161;-82
2024/01/18 06:48:42;;;;;;;86.40;39.83;;;;;;;-141.97;79.58;46223.88;5059486;28;20169;-83
2024/01/18 06:51:08;;;;;;;77.07;37.17;;;;;;;-141.97;80.11;46220.03;5056005;28;20455;-84
2024/01/18 06:53:33;;;;;;;79.77;37.53;;;;;;;-141.97;80.25;46525.53;5050357;28;20732;-85
2024/01/18 06:55:59;;;;;;;74.37;35.90;;;;;;;-141.97;79.89;46158.53;5051975;28;20213;-83
2024/01/18 06:58:24;;;;;;;105.40;39.30;;;;;;;-141.97;79.16;46156.63;5050602;28;20165;-84
2024/01/18 07:00:50;;;;;;;91.47;38.00;;;;;;;-141.97;78.26;46202.72;5051954;28;20189;-83
2024/01/18 07:03:15;;;;;;;101.73;44.47;;;;;;;-141.97;78.71;46172.00;5049897;28;20262;-84
2024/01/18 07:05:48;;;;;;;119.57;54.13;;;;;;;-141.97;78.23;46131.66;5056369;28;20166;-83
2024/01/18 07:08:14;;;;;;;87.33;43.87;;;;;;;-141.97;77.94;46066.31;5050767;28;20200;-84
2024/01/18 07:10:39;;;;;;;57.83;27.60;;;;;;;-141.97;77.20;46191.22;5050748;28;20509;-84
2024/01/18 07:13:04;;;;;;;59.53;28.50;;;;;;;-141.97;77.56;46450.59;5051331;28;20176;-85
2024/01/18 07:15:30;;;;;;;70.80;30.77;;;;;;;-141.97;78.25;46156.63;5033717;28;20650;-87
2024/01/18 07:17:55;;;;;;;66.90;32.87;;;;;;;-141.97;79.39;46164.31;5050507;28;20171;-87
2024/01/18 07:20:20;;;;;;;76.30;38.17;;;;;;;-141.97;79.76;46106.66;5050250;28;20199;-86
2024/01/18 07:22:46;;;;;;;66.10;32.90;;;;;;;-141.97;79.71;46145.09;5052120;28;20165;-87
2024/01/18 07:25:12;;;;;;;72.07;35.50;;;;;;;-141.97;80.21;46100.91;5051454;28;20162;-86
2024/01/18 07:27:38;;;;;;;84.30;40.50;;;;;;;-141.97;81.08;46392.94;5050829;28;20157;-86
2024/01/18 07:30:04;;;;;;;85.53;37.70;;;;;;;-141.97;80.91;46077.84;5058411;28;20485;-85
2024/01/18 07:32:30;;;;;;;94.70;45.00;;;;;;;-141.97;81.27;46150.84;5067221;28;20187;-86
2024/01/18 07:34:56;;;;;;;97.40;45.37;;;;;;;-141.97;80.76;46442.91;5034846;28;20416;-86
2024/01/18 07:37:22;;;;;;;125.50;53.80;;;;;;;-141.97;81.46;46173.91;5051368;28;20157;-86
2024/01/18 07:39:47;;;;;;;91.77;42.40;;;;;;;-141.97;80.61;46469.81;5032690;28;20411;-85
2024/01/18 07:42:12;;;;;;;218.40;92.37;;;;;;;-141.97;82.30;46095.16;5031681;28;20181;-85
2024/01/18 07:44:39;;;;;;;257.77;102.30;;;;;;;-141.97;80.97;46027.91;5031817;28;20255;-86
2024/01/18 07:47:07;;;;;;;397.90;148.77;;;;;;;-141.97;79.60;46018.28;5049645;28;20188;-86
2024/01/18 07:49:32;;;;;;;211.57;93.77;;;;;;;-141.97;78.93;46492.88;5049722;28;20523;-87
2024/01/18 07:51:57;;;;;;;117.87;54.63;;;;;;;-141.97;78.35;46160.47;5031792;28;20408;-84
2024/01/18 07:54:23;;;;;;;109.97;50.83;;;;;;;-141.97;78.14;46131.66;5049592;28;20259;-85
2024/01/18 07:56:48;;;;;;;143.53;69.73;;;;;;;-141.97;78.02;46200.81;5032145;28;20241;-85
2024/01/18 07:59:14;;;;;;;106.50;49.13;;;;;;;-141.97;77.88;46479.41;5049550;28;20265;-85
2024/01/18 08:01:40;;;;;;;112.43;53.50;;;;;;;-141.97;77.93;46433.28;5033113;28;20258;-84
2024/01/18 08:04:05;;;;;;;104.27;47.57;;;;;;;-141.97;77.24;46352.59;5030507;28;20436;-84
2024/01/18 08:06:31;;;;;;;102.73;49.93;;;;;;;-141.97;78.21;46392.94;5013889;28;20646;-85
2024/01/18 08:08:56;;;;;;;113.60;55.23;;;;;;;-141.97;78.20;46173.91;5013306;28;20167;-84
2024/01/18 08:11:21;;;;;;;96.97;48.23;;;;;;;-141.97;77.97;46554.34;5029381;28;20664;-87
2024/01/18 08:13:47;;;;;;;107.87;51.80;;;;;;;-141.97;78.10;46492.88;5032944;28;20178;-86
2024/01/18 08:16:12;;;;;;;74.73;37.80;;;;;;;-141.97;77.66;46150.84;5015281;28;20331;-87
2024/01/18 08:18:38;;;;;;;68.47;33.03;;;;;;;-141.97;77.49;46492.88;5052847;28;20158;-87
2024/01/18 08:21:04;;;;;;;68.90;33.37;;;;;;;-141.97;77.39;46047.13;5052774;28;20558;-88
2024/01/18 08:23:30;;;;;;;62.17;31.00;;;;;;;-141.97;76.60;46072.09;5037052;28;20474;-87
2024/01/18 08:25:55;;;;;;;60.13;28.50;;;;;;;-141.97;76.46;46177.75;5032888;28;20169;-87
2024/01/18 08:28:21;;;;;;;59.83;29.13;;;;;;;-141.97;76.89;46537.06;5032778;28;20165;-86
2024/01/18 08:30:47;;;;;;;57.80;28.57;;;;;;;-141.97;77.16;46047.13;5031912;28;20202;-85
2024/01/18 08:33:13;;;;;;;73.10;34.43;;;;;;;-141.97;76.53;45895.34;5031444;28;20196;-86
2024/01/18 08:35:38;;;;;;;63.10;30.63;;;;;;;-141.97;76.66;46170.06;5032815;28;20174;-85
2024/01/18 08:38:04;;;;;;;69.17;32.23;;;;;;;-141.97;76.12;46068.25;5032779;28;20559;-86
2024/01/18 08:40:30;;;;;;;123.73;53.40;;;;;;;-141.97;76.02;46020.22;5032488;28;20174;-87
2024/01/18 08:42:56;;;;;;;58.63;29.90;;;;;;;-141.97;75.24;46160.47;5032842;28;20883;-87
2024/01/18 08:45:22;;;;;;;54.53;27.33;;;;;;;-141.97;74.70;45962.59;5032400;28;20165;-86
2024/01/18 08:47:48;;;;;;;80.50;35.00;;;;;;;-141.97;75.04;46546.66;5032392;28;20525;-86
2024/01/18 08:50:15;;;;;;;64.13;30.23;;;;;;;-141.97;74.71;46016.38;5032429;28;21093;-87
2024/01/18 08:52:41;;;;;;;56.23;27.60;;;;;;;-141.97;74.24;46039.44;5032460;28;20629;-87
2024/01/18 08:55:06;;;;;;;78.17;35.57;;;;;;;-141.97;73.80;46152.78;5014487;28;20433;-85
2024/01/18 08:57:32;;;;;;;65.87;30.83;;;;;;;-141.97;73.91;46145.09;5032319;28;20553;-86
2024/01/18 08:59:57;;;;;;;96.07;38.10;;;;;;;-141.97;73.30;46123.97;5032174;28;20273;-89
2024/01/18 09:02:23;;;;;;;110.53;43.83;;;;;;;-141.97;72.89;46133.56;5032274;28;20173;-86
2024/01/18 09:04:48;;;;;;;70.93;32.57;;;;;;;-141.97;72.41;46312.25;5031869;28;20568;-85
2024/01/18 09:07:14;;;;;;;78.93;36.30;;;;;;;-141.97;71.81;46143.19;5031833;28;20175;-86
2024/01/18 09:09:39;;;;;;;64.83;32.00;;;;;;;-141.97;71.03;45997.16;5014298;28;20543;-85
2024/01/18 09:12:05;;;;;;;47.70;24.73;;;;;;;-141.97;69.95;46362.22;5030838;28;20636;-86
2024/01/18 09:14:30;;;;;;;49.33;26.43;;;;;;;-141.97;68.16;45981.78;5029962;28;20583;-85
2024/01/18 09:16:57;;;;;;;49.07;25.27;;;;;;;-141.97;67.52;46127.81;5014182;28;20178;-86
2024/01/18 09:19:22;;;;;;;48.80;24.93;;;;;;;-141.97;67.87;46081.69;5013985;28;20174;-85
2024/01/18 09:21:48;;;;;;;52.07;27.97;;;;;;;-141.97;67.26;46189.28;5010297;28;20508;-85
2024/01/18 09:24:14;;;;;;;53.27;26.83;;;;;;;-141.97;66.74;46100.91;5031346;28;20163;-87
2024/01/18 09:26:42;;;;;;;58.53;28.70;;;;;;;-141.97;67.22;46122.03;5032914;28;20166;-86
2024/01/18 09:29:08;;;;;;;60.27;28.60;;;;;;;-141.97;66.95;46512.06;5033582;28;20170;-86
2024/01/18 09:31:33;;;;;;;59.83;29.03;;;;;;;-141.97;66.45;46066.31;5033480;28;20464;-86
2024/01/18 09:33:59;;;;;;;71.47;34.63;;;;;;;-141.97;66.80;46112.44;5013976;28;20162;-84
2024/01/18 09:36:24;;;;;;;64.60;32.60;;;;;;;-141.97;67.23;46173.91;5031969;28;20172;-86
2024/01/18 09:38:50;;;;;;;60.37;30.23;;;;;;;-141.97;66.98;46143.19;5031494;28;20184;-86
2024/01/18 09:41:19;;;;;;;60.40;31.43;;;;;;;-141.97;66.28;46112.44;5035638;28;20158;-87
2024/01/18 09:43:45;;;;;;;86.10;39.17;;;;;;;-141.97;66.39;46050.97;5031835;28;20614;-86
2024/01/18 09:46:11;;;;;;;92.80;39.27;;;;;;;-141.97;66.22;46125.88;5031238;28;20173;-86
2024/01/18 09:48:37;;;;;;;95.70;41.53;;;;;;;-141.97;66.73;46075.94;5013606;28;20170;-85
2024/01/18 09:51:06;;;;;;;115.47;51.50;;;;;;;-141.97;67.09;46131.66;5013452;28;20193;-85
2024/01/18 09:53:32;;;;;;;113.93;49.50;;;;;;;-141.97;67.03;46494.78;5031061;28;20552;-86
2024/01/18 09:56:03;;;;;;;100.53;43.50;;;;;;;-141.97;66.69;46373.72;5013286;28;20344;-85
2024/01/18 09:58:30;;;;;;;69.87;35.00;;;;;;;-141.97;66.08;46268.06;5031114;28;20166;-85
2024/01/18 10:00:58;;;;;;;66.27;34.20;;;;;;;-141.97;65.92;46123.97;5031027;28;20173;-86
2024/01/18 10:03:24;;;;;;;76.90;36.00;;;;;;;-141.97;65.68;45977.94;5031100;28;20170;-86
2024/01/18 10:05:50;;;;;;;67.10;36.53;;;;;;;-141.97;65.89;46027.91;5013052;28;20181;-86
2024/01/18 10:08:15;;;;;;;74.27;35.23;;;;;;;-141.97;65.04;46431.38;5029938;28;20319;-86
2024/01/18 10:10:42;;;;;;;59.17;30.50;;;;;;;-141.97;65.27;46366.06;5012684;28;20692;-84
2024/01/18 10:13:16;;;;;;;61.13;27.33;;;;;;;-141.97;65.00;46323.78;5030740;28;20170;-86
2024/01/18 10:15:42;;;;;;;55.97;29.33;;;;;;;-141.97;64.52;46093.22;5031066;28;20162;-86
2024/01/18 10:18:08;;;;;;;64.43;33.37;;;;;;;-141.97;64.90;46099.00;5013295;28;20559;-86
2024/01/18 10:20:33;;;;;;;69.13;32.77;;;;;;;-141.97;64.64;46410.25;5030760;28;20174;-86
2024/01/18 10:22:59;;;;;;;67.57;30.97;;;;;;;-141.97;65.17;45897.25;5030288;28;20626;-87
2024/01/18 10:25:29;;;;;;;62.57;30.97;;;;;;;-141.97;64.69;46100.91;5030880;28;20162;-86
2024/01/18 10:27:56;;;;;;;64.40;29.70;;;;;;;-141.97;66.71;46123.97;5030850;28;20307;-84
2024/01/18 10:30:22;;;;;;;52.60;27.40;;;;;;;-141.97;68.36;45962.59;5031053;28;20991;-85
2024/01/18 10:32:49;;;;;;;65.63;33.93;;;;;;;-141.97;68.53;46031.75;5012787;28;20393;-85
2024/01/18 10:35:24;;;;;;;47.67;23.90;;;;;;;-141.97;67.43;46417.94;5033374;28;20423;-85
2024/01/18 10:38:00;;;;;;;45.03;22.40;;;;;;;-141.97;67.62;46337.22;5035182;28;20867;-86
2024/01/18 10:40:28;;;;;;;54.70;26.77;;;;;;;-141.97;68.51;46129.72;5049365;28;20392;-85
2024/01/18 10:42:53;;;;;;;52.73;26.60;;;;;;;-141.97;69.23;46241.16;5052166;28;20419;-84
2024/01/18 10:45:19;;;;;;;63.53;30.23;;;;;;;-141.97;69.08;46304.56;5052747;28;20408;-86
2024/01/18 10:47:44;;;;;;;62.67;30.90;;;;;;;-141.97;68.94;46269.97;5038885;28;20208;-85
2024/01/18 10:50:10;;;;;;;53.87;27.27;;;;;;;-141.97;67.22;46060.56;5032810;28;20182;-86
2024/01/18 10:52:37;;;;;;;55.43;27.83;;;;;;;-141.97;65.53;46456.34;5014102;28;20174;-86
2024/01/18 10:55:07;;;;;;;57.00;28.60;;;;;;;-141.97;65.32;46220.03;5030773;28;20233;-85